Terminal Aerodrome Forecast
Issued by NWS

Home | Current Version | Previous Version | Text Only | Print | Product List | Glossary On
Versions: 1 2 3 4 5 6 7 8 9 10 11 12 13 14 15
000
FTUS45 KRIW 260526
TAFJAC
TAF
KJAC 260526Z 2606/2706 01008KT P6SM SCT050 BKN080
     FM261100 03007KT P6SM VCSH SCT025 OVC040
     FM261500 VRB08KT 5SM -SHRA SCT016 OVC025
     FM262000 VRB10G20KT P6SM -SHRA VCTS SCT020 BKN035CB
     FM270200 01008KT P6SM VCSH SCT030 BKN050
      AMD LTD TO CLD VIS AND WIND=

USA.gov is the U.S. government's official web portal to all federal, state and local government web resources and services.